Time;durP1;ratioP1;P1;durP2;ratioP2;P2;SDS_P1;SDS_P2;PMS_P1;PMS_P2;Temp;Humidity;BMP_temperature;BMP_pressure;BME280_temperature;BME280_humidity;BME280_pressure;Samples;Min_cycle;Max_cycle;Signal;HPM_P1;HPM_P2
2022/06/28 00:00:55;;;;;;;1.02;0.50;;;13.20;99.90;;;;;;5025086;28;20073;-69
2022/06/28 00:03:22;;;;;;;0.35;0.35;;;13.20;99.90;;;;;;5041563;28;20072;-69
2022/06/28 00:05:49;;;;;;;0.47;0.28;;;13.10;99.90;;;;;;5042097;28;20408;-69
2022/06/28 00:08:16;;;;;;;0.52;0.20;;;13.10;99.90;;;;;;5042612;28;20646;-68
2022/06/28 00:10:42;;;;;;;1.02;0.43;;;13.10;99.90;;;;;;5041001;28;20084;-69
2022/06/28 00:13:09;;;;;;;0.80;0.52;;;13.10;99.90;;;;;;5024271;28;20099;-69
2022/06/28 00:18:22;;;;;;;0.20;0.20;;;13.00;99.90;;;;;;5027166;28;20049;-69
2022/06/28 00:20:48;;;;;;;1.10;0.40;;;13.00;99.90;;;;;;5021383;28;20206;-69
2022/06/28 00:23:15;;;;;;;0.60;0.30;;;12.90;99.90;;;;;;5020996;28;20152;-68
2022/06/28 00:25:42;;;;;;;0.65;0.28;;;12.90;99.90;;;;;;5022268;28;20083;-69
2022/06/28 00:28:08;;;;;;;0.80;0.30;;;12.80;99.90;;;;;;5021570;28;20500;-69
2022/06/28 00:30:35;;;;;;;0.68;0.30;;;12.80;99.90;;;;;;5021478;28;20069;-69
2022/06/28 00:33:02;;;;;;;0.35;0.25;;;12.70;99.90;;;;;;5023281;28;20547;-69
2022/06/28 00:35:29;;;;;;;0.75;0.25;;;12.70;99.90;;;;;;5024581;28;20875;-69
2022/06/28 00:37:55;;;;;;;1.88;0.52;;;12.70;99.90;;;;;;5024219;28;20049;-69
2022/06/28 00:40:23;;;;;;;0.70;0.40;;;12.70;99.90;;;;;;5025285;28;20128;-69
2022/06/28 00:42:50;;;;;;;0.90;0.30;;;12.70;99.90;;;;;;5025395;28;20136;-69
2022/06/28 00:45:17;;;;;;;1.48;0.50;;;12.70;99.90;;;;;;5024258;28;20081;-69
2022/06/28 00:47:43;;;;;;;0.57;0.30;;;12.70;99.90;;;;;;5023837;28;20053;-69
2022/06/28 00:50:11;;;;;;;0.93;0.30;;;12.70;99.90;;;;;;5023672;28;20081;-69
2022/06/28 00:52:58;;;;;;;0.52;0.30;;;12.70;99.90;;;;;;5025670;28;20061;-69
2022/06/28 00:55:25;;;;;;;0.88;0.30;;;12.60;99.90;;;;;;5024686;28;20059;-69
2022/06/28 00:57:52;;;;;;;0.55;0.40;;;12.60;99.90;;;;;;5024933;28;20503;-69
2022/06/28 01:00:18;;;;;;;0.68;0.43;;;12.60;99.90;;;;;;5025266;28;20164;-69
2022/06/28 01:02:45;;;;;;;1.05;0.40;;;12.50;99.90;;;;;;5024998;28;20132;-69
2022/06/28 01:05:12;;;;;;;0.57;0.30;;;12.50;99.90;;;;;;5023378;28;20047;-69
2022/06/28 01:07:39;;;;;;;0.60;0.40;;;12.50;99.90;;;;;;5023345;28;20144;-69
2022/06/28 01:10:06;;;;;;;0.65;0.40;;;12.50;99.90;;;;;;5023205;28;20140;-69
2022/06/28 01:12:33;;;;;;;0.65;0.38;;;12.50;99.90;;;;;;5025292;28;20077;-69
2022/06/28 01:15:00;;;;;;;0.93;0.43;;;12.50;99.90;;;;;;5024377;28;20069;-69
2022/06/28 01:17:27;;;;;;;0.63;0.40;;;12.40;99.90;;;;;;5024856;28;20143;-69
2022/06/28 01:19:53;;;;;;;1.40;0.50;;;12.40;99.90;;;;;;5024187;28;20115;-69
2022/06/28 01:22:21;;;;;;;0.85;0.35;;;12.30;99.90;;;;;;5025391;28;20244;-69
2022/06/28 01:24:47;;;;;;;0.93;0.40;;;12.30;99.90;;;;;;5028004;28;20840;-69
2022/06/28 01:27:14;;;;;;;0.77;0.40;;;12.30;99.90;;;;;;5043366;28;20048;-69
2022/06/28 01:29:41;;;;;;;0.60;0.38;;;12.30;99.90;;;;;;5027660;28;20132;-69
2022/06/28 01:32:08;;;;;;;0.88;0.40;;;12.20;99.90;;;;;;5027149;28;20128;-69
2022/06/28 01:34:34;;;;;;;1.02;0.30;;;12.20;99.90;;;;;;5044615;28;20080;-69
2022/06/28 01:37:01;;;;;;;0.75;0.40;;;12.30;99.90;;;;;;5028012;28;20056;-69
2022/06/28 01:39:28;;;;;;;0.75;0.38;;;12.20;99.90;;;;;;5023632;28;20455;-69
2022/06/28 01:41:55;;;;;;;1.35;0.57;;;12.20;99.90;;;;;;5045381;28;20088;-69
2022/06/28 01:44:21;;;;;;;1.23;0.38;;;12.20;99.90;;;;;;5027577;28;20088;-69
2022/06/28 01:46:48;;;;;;;1.35;0.55;;;12.20;99.90;;;;;;5011605;28;20120;-69
2022/06/28 01:49:15;;;;;;;1.23;0.40;;;12.20;99.90;;;;;;5045536;28;20136;-69
2022/06/28 01:51:41;;;;;;;0.82;0.50;;;12.10;99.90;;;;;;5027639;28;20123;-69
2022/06/28 01:54:08;;;;;;;0.63;0.30;;;12.10;99.90;;;;;;5045985;28;20132;-69
2022/06/28 01:56:35;;;;;;;0.85;0.45;;;12.10;99.90;;;;;;5045255;28;20575;-70
2022/06/28 01:59:02;;;;;;;0.35;0.20;;;12.10;99.90;;;;;;5046074;28;20080;-69
2022/06/28 02:01:29;;;;;;;0.90;0.55;;;12.10;99.90;;;;;;5011079;28;20123;-69
2022/06/28 02:03:56;;;;;;;0.80;0.40;;;12.10;99.90;;;;;;5045770;28;20577;-69
2022/06/28 02:06:23;;;;;;;0.60;0.30;;;12.10;99.90;;;;;;5047019;28;20049;-69
2022/06/28 02:08:49;;;;;;;0.28;0.28;;;12.10;99.90;;;;;;5013491;28;20080;-69
2022/06/28 02:11:16;;;;;;;1.05;0.40;;;12.00;99.90;;;;;;5046466;28;20140;-69
2022/06/28 02:13:43;;;;;;;0.88;0.38;;;12.10;99.90;;;;;;5047220;28;20516;-69
2022/06/28 02:16:09;;;;;;;1.75;0.50;;;12.00;99.90;;;;;;5047156;28;20084;-69
2022/06/28 02:18:36;;;;;;;0.95;0.40;;;12.00;99.90;;;;;;5046916;28;20174;-69
2022/06/28 02:21:03;;;;;;;1.30;0.40;;;12.00;99.90;;;;;;5046538;28;20077;-69
2022/06/28 02:23:30;;;;;;;0.45;0.22;;;12.00;99.90;;;;;;5046373;28;20136;-69
2022/06/28 02:25:57;;;;;;;0.40;0.30;;;12.00;99.90;;;;;;5046753;28;20052;-69
2022/06/28 02:28:23;;;;;;;0.88;0.55;;;12.00;99.90;;;;;;5047116;28;20080;-69
2022/06/28 02:30:50;;;;;;;1.17;0.40;;;12.00;99.90;;;;;;5046814;28;20120;-68
2022/06/28 02:33:17;;;;;;;1.05;0.40;;;12.00;99.90;;;;;;5028874;28;20063;-69
2022/06/28 02:41:14;;;;;;;0.68;0.32;;;11.90;99.90;;;;;;5031028;28;20099;-69
2022/06/28 02:43:41;;;;;;;0.32;0.32;;;11.90;99.90;;;;;;5046307;28;20128;-69
2022/06/28 02:46:08;;;;;;;1.30;0.40;;;11.90;99.90;;;;;;5047030;28;20144;-69
2022/06/28 02:48:35;;;;;;;0.82;0.40;;;11.90;99.90;;;;;;5028364;28;20628;-70
2022/06/28 02:51:01;;;;;;;1.83;0.40;;;11.90;99.90;;;;;;5028693;28;20128;-69
2022/06/28 02:53:28;;;;;;;1.00;0.30;;;11.90;99.90;;;;;;5046090;28;20084;-69
2022/06/28 02:55:55;;;;;;;1.15;0.30;;;11.80;99.90;;;;;;5046092;28;20171;-69
2022/06/28 02:58:22;;;;;;;3.15;0.68;;;11.80;99.90;;;;;;5046649;28;20053;-69
2022/06/28 03:00:48;;;;;;;0.73;0.38;;;11.80;99.90;;;;;;5030946;28;20092;-69
2022/06/28 03:03:16;;;;;;;1.00;0.32;;;11.80;99.90;;;;;;5045269;28;20053;-69
2022/06/28 03:05:42;;;;;;;0.88;0.30;;;11.80;99.90;;;;;;5046187;28;20044;-69
2022/06/28 03:08:09;;;;;;;0.63;0.30;;;11.80;99.90;;;;;;5046116;28;20081;-69
2022/06/28 03:10:36;;;;;;;0.65;0.38;;;11.80;99.90;;;;;;5011693;28;20475;-69
2022/06/28 03:13:03;;;;;;;0.75;0.25;;;11.70;99.90;;;;;;5046011;28;20132;-69
2022/06/28 03:15:29;;;;;;;0.30;0.20;;;11.70;99.90;;;;;;5046185;28;20116;-69
2022/06/28 03:17:57;;;;;;;0.63;0.35;;;11.70;99.90;;;;;;5028120;28;20049;-69
2022/06/28 03:20:24;;;;;;;0.30;0.30;;;11.70;99.90;;;;;;5046094;28;20045;-69
2022/06/28 03:22:51;;;;;;;1.73;0.45;;;11.70;99.90;;;;;;5028005;28;20104;-69
2022/06/28 03:25:18;;;;;;;2.63;1.40;;;11.70;99.90;;;;;;5036532;28;20079;-69
2022/06/28 03:27:45;;;;;;;1.40;0.30;;;11.70;99.90;;;;;;5012389;28;20068;-69
2022/06/28 03:30:11;;;;;;;1.13;0.30;;;11.70;99.90;;;;;;5045891;28;20435;-69
2022/06/28 03:32:38;;;;;;;0.43;0.30;;;11.70;99.90;;;;;;5027929;28;20045;-70
2022/06/28 03:35:06;;;;;;;0.45;0.38;;;11.70;99.90;;;;;;5033516;28;20846;-69
2022/06/28 03:37:34;;;;;;;1.30;0.60;;;11.70;99.90;;;;;;5045707;28;20131;-70
2022/06/28 03:40:00;;;;;;;0.50;0.32;;;11.70;99.90;;;;;;5027837;28;20528;-70
2022/06/28 03:42:27;;;;;;;0.63;0.45;;;11.70;99.90;;;;;;5011890;28;20115;-69
2022/06/28 03:44:54;;;;;;;0.93;0.38;;;11.70;99.90;;;;;;5046047;28;20080;-70
2022/06/28 03:47:21;;;;;;;1.70;0.60;;;11.70;99.90;;;;;;5045720;28;20711;-70
2022/06/28 03:49:47;;;;;;;1.38;0.50;;;11.70;99.90;;;;;;5045348;28;20171;-70
2022/06/28 03:52:15;;;;;;;1.48;0.40;;;11.70;99.90;;;;;;5045371;28;20084;-70
2022/06/28 03:54:41;;;;;;;1.15;0.30;;;11.70;99.90;;;;;;5045782;28;20477;-69
2022/06/28 03:57:08;;;;;;;0.98;0.43;;;11.70;99.90;;;;;;5045661;28;20100;-70
2022/06/28 03:59:36;;;;;;;0.50;0.28;;;11.70;99.90;;;;;;5046013;28;20179;-69
2022/06/28 04:02:04;;;;;;;0.70;0.20;;;11.70;99.90;;;;;;5045747;28;20072;-69
2022/06/28 04:04:32;;;;;;;0.95;0.30;;;11.60;99.90;;;;;;5028006;28;20079;-69
2022/06/28 04:06:59;;;;;;;1.42;0.38;;;11.60;99.90;;;;;;5033595;28;20045;-70
2022/06/28 04:09:26;;;;;;;0.75;0.40;;;11.60;99.90;;;;;;5015936;28;20045;-69
2022/06/28 04:11:53;;;;;;;0.35;0.30;;;11.60;99.90;;;;;;5030712;28;20045;-69
2022/06/28 04:14:20;;;;;;;1.23;0.60;;;11.60;99.90;;;;;;5049519;28;20132;-69
2022/06/28 04:16:47;;;;;;;0.43;0.20;;;11.60;99.90;;;;;;5049382;28;20081;-69
2022/06/28 04:19:13;;;;;;;0.45;0.35;;;11.60;99.90;;;;;;5049638;28;20099;-69
2022/06/28 04:21:40;;;;;;;1.17;0.40;;;11.60;99.90;;;;;;5030971;28;20546;-69
2022/06/28 04:24:07;;;;;;;0.93;0.32;;;11.60;99.90;;;;;;5049474;28;20056;-70
2022/06/28 04:26:34;;;;;;;0.30;0.30;;;11.60;99.90;;;;;;5037520;28;20072;-70
2022/06/28 04:29:01;;;;;;;1.05;0.45;;;11.70;99.90;;;;;;5015802;28;20048;-69
2022/06/28 04:31:27;;;;;;;0.40;0.28;;;11.70;99.90;;;;;;5014285;28;20080;-69
2022/06/28 04:33:54;;;;;;;0.63;0.30;;;11.70;99.90;;;;;;5048968;28;20057;-69
2022/06/28 04:36:21;;;;;;;0.20;0.10;;;11.70;99.90;;;;;;5030444;28;20069;-69
2022/06/28 04:38:48;;;;;;;1.45;0.40;;;11.80;99.90;;;;;;5049454;28;20037;-69
2022/06/28 04:41:14;;;;;;;0.28;0.22;;;11.80;99.90;;;;;;5047268;28;20049;-69
2022/06/28 04:43:41;;;;;;;0.90;0.30;;;11.80;99.90;;;;;;5048638;28;20128;-69
2022/06/28 04:46:08;;;;;;;0.30;0.15;;;11.80;99.90;;;;;;5049261;28;20137;-69
2022/06/28 04:48:35;;;;;;;1.92;0.40;;;11.90;99.90;;;;;;5030746;28;20045;-69
2022/06/28 04:51:10;;;;;;;0.80;0.30;;;11.90;99.90;;;;;;5049810;28;20499;-69
2022/06/28 04:53:42;;;;;;;0.60;0.35;;;12.00;99.90;;;;;;5019698;28;20080;-69
2022/06/28 04:56:09;;;;;;;0.90;0.32;;;12.00;99.90;;;;;;5036884;28;20037;-69
2022/06/28 04:58:35;;;;;;;0.28;0.20;;;12.10;99.90;;;;;;5046263;28;20052;-69
2022/06/28 05:01:02;;;;;;;0.38;0.20;;;12.10;99.90;;;;;;5014941;28;20705;-70
2022/06/28 05:03:40;;;;;;;0.47;0.30;;;12.20;99.90;;;;;;5031767;28;20080;-69
2022/06/28 05:06:07;;;;;;;0.65;0.22;;;12.20;99.90;;;;;;5031344;28;20057;-68
2022/06/28 05:08:34;;;;;;;0.30;0.30;;;12.30;99.90;;;;;;5026849;28;20072;-68
2022/06/28 05:11:01;;;;;;;0.30;0.25;;;12.30;99.90;;;;;;5028118;28;20145;-69
2022/06/28 05:13:29;;;;;;;0.10;0.10;;;12.40;99.90;;;;;;5045292;28;20136;-69
2022/06/28 05:15:55;;;;;;;1.13;0.30;;;12.40;99.90;;;;;;5046352;28;20080;-69
2022/06/28 05:18:22;;;;;;;0.20;0.20;;;12.50;99.90;;;;;;5045584;28;20135;-69
2022/06/28 05:20:49;;;;;;;0.40;0.20;;;12.60;99.90;;;;;;5045874;28;20073;-69
2022/06/28 05:23:16;;;;;;;1.10;0.30;;;12.70;99.90;;;;;;5032445;28;20084;-69
2022/06/28 05:25:42;;;;;;;0.43;0.20;;;12.80;99.90;;;;;;5043689;28;20132;-69
2022/06/28 05:28:09;;;;;;;0.60;0.38;;;12.80;99.90;;;;;;5025765;28;20124;-69
2022/06/28 05:30:36;;;;;;;0.70;0.30;;;12.90;99.90;;;;;;5040970;28;20053;-70
2022/06/28 05:33:03;;;;;;;0.50;0.45;;;13.00;99.90;;;;;;5039733;28;20393;-69
2022/06/28 05:35:30;;;;;;;0.85;0.47;;;13.10;99.90;;;;;;5008258;28;20084;-70
2022/06/28 05:37:57;;;;;;;0.98;0.60;;;13.20;99.90;;;;;;5026527;28;20488;-70
2022/06/28 05:40:24;;;;;;;0.90;0.60;;;13.20;99.90;;;;;;5023646;28;20072;-69
2022/06/28 05:42:50;;;;;;;0.82;0.50;;;13.30;99.90;;;;;;5042314;28;20127;-69
2022/06/28 05:45:17;;;;;;;0.45;0.30;;;13.30;99.90;;;;;;5004545;28;20172;-69
2022/06/28 05:47:45;;;;;;;0.93;0.40;;;13.40;99.90;;;;;;5025425;28;20128;-69
2022/06/28 05:50:12;;;;;;;1.58;0.55;;;13.50;99.90;;;;;;5025613;28;20179;-69
2022/06/28 05:52:39;;;;;;;0.60;0.50;;;13.50;99.90;;;;;;4991741;28;20069;-69
2022/06/28 05:55:06;;;;;;;1.80;0.50;;;13.60;99.90;;;;;;5040004;28;20389;-69
2022/06/28 05:57:33;;;;;;;1.30;0.50;;;13.60;99.90;;;;;;5040822;28;20053;-69
2022/06/28 06:00:00;;;;;;;1.10;0.38;;;13.70;99.90;;;;;;5044644;28;20091;-69
2022/06/28 06:02:26;;;;;;;2.08;0.50;;;13.80;99.90;;;;;;5046246;28;21031;-69
2022/06/28 06:04:54;;;;;;;1.63;0.60;;;13.80;99.90;;;;;;5024994;28;20128;-69
2022/06/28 06:07:21;;;;;;;0.95;0.50;;;13.90;99.90;;;;;;5040148;28;20098;-69
2022/06/28 06:09:48;;;;;;;0.60;0.30;;;14.00;99.90;;;;;;5039985;28;20547;-69
2022/06/28 06:12:15;;;;;;;0.80;0.43;;;14.00;99.90;;;;;;5041145;28;20176;-69
2022/06/28 06:14:42;;;;;;;1.45;0.73;;;14.10;99.90;;;;;;5039490;28;20084;-69
2022/06/28 06:17:09;;;;;;;0.90;0.60;;;14.20;99.90;;;;;;5030463;28;20132;-70
2022/06/28 06:19:36;;;;;;;2.20;0.73;;;14.20;99.90;;;;;;5045861;28;20139;-70
2022/06/28 06:22:03;;;;;;;1.33;0.40;;;14.30;99.90;;;;;;5025735;28;20051;-70
2022/06/28 06:24:29;;;;;;;1.00;0.40;;;14.30;99.90;;;;;;5040545;28;20485;-70
2022/06/28 06:26:56;;;;;;;1.02;0.50;;;14.40;99.90;;;;;;5041421;28;20080;-70
2022/06/28 06:29:23;;;;;;;1.35;0.60;;;14.40;99.90;;;;;;5044137;28;20073;-70
2022/06/28 06:31:50;;;;;;;0.82;0.60;;;14.40;99.90;;;;;;5044010;28;20151;-70
2022/06/28 06:34:16;;;;;;;0.70;0.38;;;14.50;99.90;;;;;;5042485;28;20056;-70
2022/06/28 06:36:45;;;;;;;3.13;0.63;;;14.60;99.90;;;;;;5042500;28;20139;-70
2022/06/28 06:39:12;;;;;;;1.50;0.77;;;14.70;99.90;;;;;;5047251;28;20049;-70
2022/06/28 06:41:38;;;;;;;3.22;1.23;;;14.70;99.90;;;;;;5045073;28;20096;-70
2022/06/28 06:44:05;;;;;;;1.45;0.60;;;14.80;99.90;;;;;;5045940;28;20285;-70
2022/06/28 06:46:32;;;;;;;1.88;0.60;;;14.80;99.90;;;;;;5045591;28;20515;-70
2022/06/28 06:48:59;;;;;;;1.27;0.40;;;14.90;99.90;;;;;;5044757;28;20052;-70
2022/06/28 06:51:26;;;;;;;1.25;0.60;;;14.90;99.90;;;;;;5027583;28;20131;-70
2022/06/28 06:53:53;;;;;;;1.38;0.50;;;15.00;99.90;;;;;;5028612;28;20048;-70
2022/06/28 06:56:19;;;;;;;1.85;0.93;;;15.10;99.90;;;;;;5045456;28;20281;-70
2022/06/28 06:58:46;;;;;;;2.90;1.35;;;15.10;99.90;;;;;;5046349;28;20060;-70
2022/06/28 07:01:13;;;;;;;1.17;0.50;;;15.10;99.90;;;;;;5045782;28;20076;-70
2022/06/28 07:04:00;;;;;;;2.13;0.60;;;15.20;99.90;;;;;;5042856;28;20052;-70
2022/06/28 07:06:27;;;;;;;2.47;0.65;;;15.30;99.90;;;;;;5042624;28;20041;-70
2022/06/28 07:08:54;;;;;;;2.05;0.68;;;15.40;99.90;;;;;;5045587;28;20053;-70
2022/06/28 07:11:21;;;;;;;1.63;0.60;;;15.50;99.90;;;;;;5044894;28;20077;-70
2022/06/28 07:13:48;;;;;;;2.17;0.70;;;15.50;99.90;;;;;;5045783;28;20087;-70
2022/06/28 07:16:14;;;;;;;0.73;0.45;;;15.50;99.90;;;;;;5044798;28;20091;-70
2022/06/28 07:18:42;;;;;;;1.65;0.52;;;15.50;99.90;;;;;;5040079;28;20835;-70
2022/06/28 07:21:09;;;;;;;1.60;0.60;;;15.50;99.90;;;;;;5041229;28;20502;-70
2022/06/28 07:23:36;;;;;;;0.93;0.50;;;15.60;99.90;;;;;;5022329;28;20077;-71
2022/06/28 07:26:03;;;;;;;1.98;0.50;;;15.60;99.90;;;;;;5022330;28;20076;-71
2022/06/28 07:28:30;;;;;;;2.22;0.60;;;15.70;99.90;;;;;;5011917;28;20557;-71
2022/06/28 07:30:57;;;;;;;2.08;0.50;;;15.70;99.90;;;;;;5036982;28;20099;-70
2022/06/28 07:33:24;;;;;;;1.75;0.63;;;15.80;99.90;;;;;;5023002;28;20050;-71
2022/06/28 07:35:50;;;;;;;1.38;0.60;;;15.80;99.90;;;;;;5025641;28;20085;-71
2022/06/28 07:38:17;;;;;;;1.42;0.70;;;15.80;99.90;;;;;;5024544;28;20330;-71
2022/06/28 07:40:44;;;;;;;1.45;0.57;;;15.80;99.90;;;;;;5023756;28;20083;-71
2022/06/28 07:43:10;;;;;;;1.40;0.47;;;15.90;99.90;;;;;;5024616;28;20484;-70
2022/06/28 07:45:39;;;;;;;1.08;0.57;;;16.00;99.90;;;;;;5029703;28;20133;-70
2022/06/28 07:48:07;;;;;;;0.82;0.40;;;16.10;99.90;;;;;;5010641;28;20148;-70
2022/06/28 07:53:19;;;;;;;1.65;0.68;;;16.40;99.90;;;;;;5023627;28;20049;-70
2022/06/28 07:55:46;;;;;;;1.33;0.60;;;16.60;99.90;;;;;;5014124;28;20143;-71
2022/06/28 07:58:12;;;;;;;1.75;0.60;;;16.90;99.90;;;;;;5024860;28;20145;-70
2022/06/28 08:00:39;;;;;;;2.38;0.77;;;17.10;99.90;;;;;;5023135;28;20080;-70
2022/06/28 08:03:06;;;;;;;1.58;0.60;;;17.10;99.90;;;;;;5028509;28;20104;-70
2022/06/28 08:05:33;;;;;;;3.00;0.90;;;17.10;99.90;;;;;;5028841;28;20153;-70
2022/06/28 08:07:59;;;;;;;1.15;0.47;;;17.20;99.90;;;;;;5029315;28;20188;-70
2022/06/28 08:10:26;;;;;;;3.92;0.98;;;17.20;99.90;;;;;;5027643;28;20500;-70
2022/06/28 08:12:53;;;;;;;0.95;0.50;;;17.30;99.90;;;;;;5029251;28;20489;-70
2022/06/28 08:15:20;;;;;;;0.57;0.40;;;17.40;99.90;;;;;;5029104;28;20454;-70
2022/06/28 08:17:46;;;;;;;0.85;0.60;;;17.50;99.90;;;;;;5011149;28;20145;-70
2022/06/28 08:20:13;;;;;;;1.15;0.40;;;17.60;99.90;;;;;;5028447;28;20049;-70
2022/06/28 08:22:40;;;;;;;1.50;0.68;;;17.60;99.90;;;;;;5031574;28;20045;-70
2022/06/28 08:25:08;;;;;;;1.52;0.60;;;17.70;99.90;;;;;;4994541;28;20552;-70
2022/06/28 08:27:35;;;;;;;1.58;1.00;;;17.60;99.90;;;;;;5028085;28;20678;-70
2022/06/28 08:30:02;;;;;;;2.50;0.80;;;17.70;99.90;;;;;;5014336;28;20064;-70
2022/06/28 08:32:28;;;;;;;2.72;0.80;;;17.70;99.90;;;;;;5011303;28;20056;-70
2022/06/28 08:34:55;;;;;;;1.48;0.60;;;17.90;99.90;;;;;;5044618;28;20124;-70
2022/06/28 08:37:22;;;;;;;0.70;0.38;;;18.10;99.90;;;;;;5048087;28;20122;-70
2022/06/28 08:39:49;;;;;;;1.67;0.60;;;18.40;99.90;;;;;;5030593;28;20448;-70
2022/06/28 08:42:19;;;;;;;1.20;0.50;;;18.50;99.90;;;;;;5048493;28;20076;-70
2022/06/28 08:44:46;;;;;;;0.65;0.35;;;18.60;99.90;;;;;;5015385;28;20133;-70
2022/06/28 08:47:14;;;;;;;1.77;0.40;;;18.70;99.90;;;;;;5030754;28;20080;-70
2022/06/28 08:49:49;;;;;;;2.95;0.70;;;18.70;99.90;;;;;;5010936;28;20141;-70
2022/06/28 08:52:23;;;;;;;0.85;0.50;;;18.80;99.90;;;;;;5036314;28;20053;-69
2022/06/28 08:54:50;;;;;;;0.88;0.40;;;18.80;99.90;;;;;;5010682;28;20536;-70
2022/06/28 08:57:20;;;;;;;1.20;0.52;;;18.70;99.90;;;;;;5046850;28;20133;-70
2022/06/28 08:59:48;;;;;;;3.38;0.88;;;18.80;99.90;;;;;;4996951;28;20618;-69
2022/06/28 09:02:14;;;;;;;1.25;0.75;;;18.90;99.90;;;;;;5029740;28;20068;-69
2022/06/28 09:04:45;;;;;;;1.08;0.30;;;19.00;99.90;;;;;;5037990;28;20053;-70
2022/06/28 09:07:11;;;;;;;0.77;0.50;;;19.10;99.90;;;;;;5017143;28;20531;-70
2022/06/28 09:09:39;;;;;;;0.73;0.22;;;19.30;99.90;;;;;;5036136;28;20057;-69
2022/06/28 09:12:06;;;;;;;0.70;0.47;;;19.40;99.90;;;;;;5001743;28;20154;-69
2022/06/28 09:14:34;;;;;;;1.15;0.38;;;19.40;99.90;;;;;;5042464;28;20176;-70
2022/06/28 09:17:18;;;;;;;2.35;0.80;;;19.60;99.90;;;;;;5017481;28;20172;-70
2022/06/28 09:19:45;;;;;;;1.10;0.57;;;19.50;99.90;;;;;;5044798;28;20083;-70
2022/06/28 09:22:33;;;;;;;1.45;0.63;;;19.50;99.90;;;;;;5011347;28;20686;-70
2022/06/28 09:25:02;;;;;;;0.82;0.50;;;19.70;99.90;;;;;;5043077;28;20152;-70
2022/06/28 09:27:36;;;;;;;1.13;0.60;;;20.00;99.90;;;;;;5009450;28;20187;-70
2022/06/28 09:30:04;;;;;;;1.13;0.50;;;20.30;99.90;;;;;;5010692;28;20076;-71
2022/06/28 09:32:33;;;;;;;1.23;0.50;;;20.60;99.90;;;;;;5042511;28;20041;-71
2022/06/28 09:35:07;;;;;;;0.40;0.40;;;20.70;99.90;;;;;;5019916;28;20084;-70
2022/06/28 09:37:38;;;;;;;1.27;0.55;;;20.40;99.90;;;;;;5012327;28;20107;-71
2022/06/28 09:40:12;;;;;;;1.10;0.50;;;20.10;99.90;;;;;;5043196;28;20416;-70
2022/06/28 09:42:40;;;;;;;0.93;0.40;;;19.70;99.90;;;;;;5012884;28;20135;-70
2022/06/28 09:45:09;;;;;;;1.00;0.63;;;19.30;99.90;;;;;;5044644;28;20052;-69
2022/06/28 09:47:41;;;;;;;1.85;0.80;;;19.10;99.90;;;;;;5027850;28;20555;-71
2022/06/28 09:50:29;;;;;;;1.42;0.63;;;18.90;99.90;;;;;;5020384;28;20059;-71
2022/06/28 09:52:56;;;;;;;2.17;0.60;;;18.90;99.90;;;;;;5042121;28;20184;-71
2022/06/28 09:55:23;;;;;;;0.88;0.50;;;19.10;99.90;;;;;;5021278;28;20159;-69
2022/06/28 09:57:49;;;;;;;0.40;0.30;;;19.30;99.90;;;;;;5008328;28;20132;-70
2022/06/28 10:00:24;;;;;;;1.48;0.47;;;19.60;99.90;;;;;;5033659;28;20063;-70
2022/06/28 10:02:55;;;;;;;0.98;0.50;;;19.90;99.90;;;;;;5042505;28;20045;-71
2022/06/28 10:05:22;;;;;;;0.75;0.50;;;20.00;99.90;;;;;;5004036;28;20057;-71
2022/06/28 10:07:49;;;;;;;1.15;0.50;;;20.00;99.90;;;;;;5039793;28;20048;-69
2022/06/28 10:10:16;;;;;;;0.73;0.50;;;20.00;99.90;;;;;;5015916;28;20200;-70
2022/06/28 10:15:53;;;;;;;0.93;0.40;;;20.20;99.90;;;;;;5029807;28;20554;-69
2022/06/28 10:18:21;;;;;;;1.38;0.70;;;20.30;99.90;;;;;;5031374;28;20060;-70
2022/06/28 10:20:48;;;;;;;0.55;0.35;;;20.20;99.80;;;;;;5029370;28;20533;-69
2022/06/28 10:23:24;;;;;;;0.52;0.40;;;20.20;99.90;;;;;;5027123;28;20085;-70
2022/06/28 10:26:15;;;;;;;0.55;0.40;;;20.20;99.90;;;;;;5042135;28;20152;-70
2022/06/28 10:29:04;;;;;;;1.85;0.65;;;20.20;99.90;;;;;;5034960;28;20072;-70
2022/06/28 10:31:31;;;;;;;0.80;0.40;;;20.30;99.70;;;;;;5044499;28;20111;-69
2022/06/28 10:34:22;;;;;;;1.77;0.60;;;20.30;99.90;;;;;;5029878;28;20143;-70
2022/06/28 10:36:57;;;;;;;0.80;0.50;;;20.20;99.70;;;;;;5026750;28;20118;-69
2022/06/28 10:39:25;;;;;;;1.13;0.38;;;20.10;99.80;;;;;;5027817;28;20060;-69
2022/06/28 10:42:01;;;;;;;0.85;0.40;;;20.00;99.90;;;;;;5045676;28;20091;-69
2022/06/28 10:44:31;;;;;;;0.80;0.52;;;20.20;99.90;;;;;;5046517;28;20088;-69
2022/06/28 10:47:00;;;;;;;1.05;0.40;;;20.60;99.90;;;;;;5022023;28;20065;-69
2022/06/28 10:49:52;;;;;;;0.60;0.50;;;21.00;99.20;;;;;;5041687;28;20091;-69
2022/06/28 10:52:23;;;;;;;0.85;0.60;;;21.40;98.70;;;;;;5040011;28;20297;-70
2022/06/28 10:54:52;;;;;;;1.20;0.70;;;21.50;98.50;;;;;;5012404;28;20498;-70
2022/06/28 10:57:24;;;;;;;1.00;0.55;;;21.80;98.30;;;;;;5034256;28;20049;-69
2022/06/28 10:59:53;;;;;;;1.05;0.50;;;22.10;98.00;;;;;;5026154;28;20095;-70
2022/06/28 11:02:19;;;;;;;0.80;0.50;;;22.20;96.80;;;;;;5040190;28;20041;-70
2022/06/28 11:04:47;;;;;;;1.10;0.52;;;22.10;96.50;;;;;;5025677;28;20140;-70
2022/06/28 11:07:21;;;;;;;1.98;0.65;;;21.80;96.80;;;;;;5045572;28;20091;-70
2022/06/28 11:09:53;;;;;;;0.98;0.60;;;21.50;97.10;;;;;;5043609;28;20065;-70
2022/06/28 11:12:22;;;;;;;0.38;0.30;;;21.60;97.40;;;;;;5038195;28;20473;-70
2022/06/28 11:14:55;;;;;;;0.65;0.43;;;21.90;97.70;;;;;;4995556;28;20159;-71
2022/06/28 11:17:42;;;;;;;0.30;0.30;;;22.10;96.80;;;;;;5021585;28;20055;-72
2022/06/28 11:20:12;;;;;;;1.13;0.30;;;22.10;95.70;;;;;;5033563;28;20061;-71
2022/06/28 11:22:42;;;;;;;2.00;0.80;;;22.00;95.30;;;;;;5018938;28;20092;-72
2022/06/28 11:25:14;;;;;;;0.40;0.38;;;21.80;95.60;;;;;;5039733;28;20089;-72
2022/06/28 11:27:57;;;;;;;0.43;0.28;;;21.80;95.80;;;;;;5039125;28;20477;-71
2022/06/28 11:30:27;;;;;;;;;;;21.70;95.90;;;;;;5006378;28;20138;-72
2022/06/28 11:32:57;;;;;;;1.42;0.50;;;22.00;95.20;;;;;;5037714;28;20007;-72
2022/06/28 11:35:27;;;;;;;1.45;0.50;;;22.00;94.90;;;;;;5038011;28;20134;-72
2022/06/28 11:38:02;;;;;;;1.20;0.63;;;21.70;93.80;;;;;;5004986;28;20057;-71
2022/06/28 11:40:39;;;;;;;0.60;0.32;;;21.60;94.40;;;;;;5025360;28;20049;-72
2022/06/28 11:43:08;;;;;;;0.73;0.40;;;21.90;94.80;;;;;;5023332;28;20057;-72
2022/06/28 11:45:39;;;;;;;0.70;0.40;;;21.90;94.60;;;;;;5037157;28;20045;-71
2022/06/28 11:48:13;;;;;;;1.20;0.47;;;21.70;94.20;;;;;;5018706;28;20053;-71
2022/06/28 11:50:53;;;;;;;1.35;0.50;;;21.90;94.20;;;;;;5023411;28;20140;-72
2022/06/28 11:53:20;;;;;;;0.75;0.30;;;22.40;94.70;;;;;;5002846;28;20053;-72
2022/06/28 11:55:48;;;;;;;0.40;0.40;;;22.60;94.30;;;;;;5007614;28;20128;-72
2022/06/28 11:58:15;;;;;;;1.00;0.70;;;22.70;93.40;;;;;;5004173;28;20048;-72
2022/06/28 12:01:02;;;;;;;0.52;0.50;;;23.10;92.80;;;;;;5037065;28;20114;-72
2022/06/28 12:03:29;;;;;;;0.40;0.40;;;23.60;92.10;;;;;;5034361;28;20084;-72
2022/06/28 12:06:00;;;;;;;0.52;0.30;;;23.80;91.80;;;;;;5020238;28;20049;-72
2022/06/28 12:08:52;;;;;;;0.95;0.40;;;23.90;91.70;;;;;;5002426;28;20053;-72
2022/06/28 12:11:35;;;;;;;0.77;0.50;;;23.90;90.20;;;;;;5021828;28;20451;-72
2022/06/28 12:14:02;;;;;;;0.20;0.20;;;24.30;90.60;;;;;;5036123;28;20095;-72
2022/06/28 12:16:30;;;;;;;0.82;0.57;;;24.40;88.90;;;;;;5038151;28;20554;-72
2022/06/28 12:18:59;;;;;;;0.73;0.50;;;24.50;88.40;;;;;;5013191;28;20126;-72
2022/06/28 12:21:27;;;;;;;0.65;0.50;;;24.50;85.70;;;;;;5019549;28;20135;-72
2022/06/28 12:23:54;;;;;;;0.68;0.40;;;24.40;87.40;;;;;;5013758;28;20451;-72
2022/06/28 12:26:36;;;;;;;0.88;0.40;;;24.60;85.80;;;;;;5008654;28;20103;-72
2022/06/28 12:29:03;;;;;;;0.80;0.60;;;24.70;83.70;;;;;;5038170;28;20045;-72
2022/06/28 12:31:29;;;;;;;0.75;0.40;;;25.00;82.60;;;;;;5040319;28;20411;-72
2022/06/28 12:33:56;;;;;;;0.98;0.60;;;25.20;82.60;;;;;;5012648;28;20059;-72
2022/06/28 12:36:23;;;;;;;1.50;0.50;;;25.20;82.60;;;;;;5012019;28;20076;-71
2022/06/28 12:38:50;;;;;;;0.50;0.50;;;25.60;82.30;;;;;;5042722;28;20184;-72
2022/06/28 12:41:17;;;;;;;0.70;0.40;;;26.10;80.50;;;;;;5037436;28;20484;-71
2022/06/28 12:43:44;;;;;;;0.50;0.43;;;26.20;79.10;;;;;;5041140;28;20502;-71
2022/06/28 12:46:10;;;;;;;1.15;0.80;;;26.00;79.60;;;;;;5033889;28;20558;-72
2022/06/28 12:48:38;;;;;;;0.73;0.50;;;26.10;80.10;;;;;;5006972;28;20123;-71
2022/06/28 12:51:04;;;;;;;1.33;0.50;;;26.40;78.50;;;;;;5037610;28;20474;-71
2022/06/28 12:53:31;;;;;;;0.77;0.50;;;26.40;76.80;;;;;;5040817;28;20063;-71
2022/06/28 12:55:58;;;;;;;0.45;0.45;;;26.40;76.80;;;;;;5023899;28;20443;-71
2022/06/28 12:58:25;;;;;;;0.70;0.52;;;27.00;77.10;;;;;;5023898;28;20211;-72
2022/06/28 13:00:52;;;;;;;0.98;0.43;;;27.10;75.40;;;;;;5024981;28;20085;-72
2022/06/28 13:03:18;;;;;;;0.25;0.20;;;27.30;75.90;;;;;;5012606;28;20075;-71
2022/06/28 13:05:47;;;;;;;0.35;0.30;;;26.90;75.20;;;;;;5021520;28;20322;-72
2022/06/28 13:08:14;;;;;;;0.52;0.38;;;27.60;74.70;;;;;;5034955;28;20604;-72